Time;durP1;ratioP1;P1;durP2;ratioP2;P2;SDS_P1;SDS_P2;PMS_P1;PMS_P2;Temp;Humidity;BMP_temperature;BMP_pressure;BME280_temperature;BME280_humidity;BME280_pressure;Samples;Min_cycle;Max_cycle;Signal;HPM_P1;HPM_P2
2022/01/18 00:00:09;;;;;;;23.30;8.30;;;8.10;99.90;;;;;;5031481;28;20060;-76
2022/01/18 00:02:35;;;;;;;26.70;7.88;;;8.10;99.90;;;;;;5034435;28;20033;-76
2022/01/18 00:05:00;;;;;;;21.75;7.22;;;8.10;99.90;;;;;;5064048;28;20051;-76
2022/01/18 00:07:26;;;;;;;21.65;9.93;;;8.10;99.90;;;;;;5032041;28;20048;-76
2022/01/18 00:09:52;;;;;;;21.67;8.60;;;8.00;99.90;;;;;;5029191;28;20098;-76
2022/01/18 00:15:28;;;;;;;33.72;8.52;;;8.00;99.90;;;;;;5033216;28;20186;-77
2022/01/18 00:18:12;;;;;;;27.60;8.00;;;8.00;99.90;;;;;;5026038;28;20119;-75
2022/01/18 00:23:30;;;;;;;28.80;8.27;;;7.90;99.90;;;;;;5032043;28;20319;-76
2022/01/18 00:25:57;;;;;;;24.45;7.25;;;7.80;99.90;;;;;;5066820;28;20053;-76
2022/01/18 00:28:26;;;;;;;22.52;7.88;;;7.70;99.90;;;;;;5035444;28;20056;-76
2022/01/18 00:33:44;;;;;;;13.13;6.18;;;7.60;99.90;;;;;;5035662;28;20052;-76
2022/01/18 00:36:29;;;;;;;24.45;8.60;;;7.60;99.90;;;;;;5034346;28;20052;-76
2022/01/18 00:38:55;;;;;;;26.13;8.68;;;7.50;99.90;;;;;;5035043;28;20099;-76
2022/01/18 00:41:24;;;;;;;22.55;7.05;;;7.40;99.90;;;;;;5034619;28;20694;-76
2022/01/18 00:43:50;;;;;;;18.25;7.40;;;7.30;99.90;;;;;;5034475;28;20856;-76
2022/01/18 00:46:16;;;;;;;30.83;8.23;;;7.30;99.90;;;;;;5037258;28;20063;-76
2022/01/18 00:48:42;;;;;;;27.92;9.57;;;7.30;99.90;;;;;;5038896;28;20045;-76
2022/01/18 00:51:12;;;;;;;26.33;8.07;;;7.20;99.90;;;;;;5039335;28;20045;-76
2022/01/18 00:53:38;;;;;;;20.75;7.60;;;7.20;99.90;;;;;;5037807;28;20266;-76
2022/01/18 00:59:04;;;;;;;21.63;8.20;;;7.10;99.90;;;;;;5036740;28;20570;-76
2022/01/18 01:01:31;;;;;;;30.02;7.60;;;7.10;99.90;;;;;;5035876;28;20041;-76
2022/01/18 01:04:01;;;;;;;25.83;9.43;;;7.00;99.90;;;;;;5037773;28;20203;-76
2022/01/18 01:06:27;;;;;;;18.83;7.60;;;7.10;99.90;;;;;;5038546;28;20077;-77
2022/01/18 01:08:52;;;;;;;21.35;7.13;;;7.10;99.90;;;;;;5038427;28;20056;-77
2022/01/18 01:11:19;;;;;;;22.05;7.95;;;7.10;99.90;;;;;;5039611;28;20767;-76
2022/01/18 01:13:48;;;;;;;37.15;8.18;;;7.10;99.90;;;;;;5039670;28;20037;-76
2022/01/18 01:35:29;;;;;;;23.10;9.38;;;7.20;99.90;;;;;;5038878;28;20110;-76
2022/01/18 01:43:38;;;;;;;24.58;8.35;;;7.20;99.90;;;;;;5038991;28;20057;-76
2022/01/18 01:46:04;;;;;;;24.17;6.35;;;7.20;99.90;;;;;;5033769;28;20048;-76
2022/01/18 01:48:30;;;;;;;16.92;7.10;;;7.20;99.90;;;;;;5035979;28;20779;-77
2022/01/18 01:51:05;;;;;;;19.77;8.02;;;7.20;99.90;;;;;;5037522;28;20057;-76
2022/01/18 01:53:32;;;;;;;25.27;7.32;;;6.50;99.90;;;;;;5037315;28;20055;-76
2022/01/18 01:55:58;;;;;;;29.83;9.70;;;7.20;99.90;;;;;;5031130;28;20623;-76
2022/01/18 01:58:25;;;;;;;23.05;7.82;;;7.20;99.90;;;;;;5037259;28;20725;-76
2022/01/18 02:00:57;;;;;;;28.70;8.05;;;7.20;99.90;;;;;;5037242;28;20049;-77
2022/01/18 02:03:24;;;;;;;25.95;7.90;;;7.20;99.90;;;;;;5036393;28;20060;-77
2022/01/18 02:05:50;;;;;;;19.15;6.93;;;7.20;99.90;;;;;;5038304;28;20481;-76
2022/01/18 02:08:16;;;;;;;21.52;7.78;;;7.20;99.90;;;;;;5037627;28;20052;-77
2022/01/18 02:10:43;;;;;;;20.60;6.93;;;7.20;99.90;;;;;;5037599;28;20045;-76
2022/01/18 02:13:11;;;;;;;24.38;8.25;;;7.20;99.90;;;;;;5036881;28;20044;-76
2022/01/18 02:15:42;;;;;;;21.20;8.23;;;7.10;99.90;;;;;;5038681;28;20049;-76
2022/01/18 02:23:37;;;;;;;23.67;7.50;;;7.20;99.90;;;;;;5038038;28;20163;-75
2022/01/18 02:26:03;;;;;;;21.60;6.65;;;7.20;99.90;;;;;;5038649;28;20080;-76
2022/01/18 02:28:28;;;;;;;30.35;7.00;;;7.20;99.90;;;;;;5037314;28;20076;-76
2022/01/18 02:30:55;;;;;;;19.63;7.18;;;7.20;99.90;;;;;;5035880;28;20152;-76
2022/01/18 02:33:20;;;;;;;22.17;7.00;;;7.20;99.90;;;;;;5037380;28;20785;-76
2022/01/18 02:35:47;;;;;;;19.88;7.57;;;7.20;99.90;;;;;;5036667;28;20045;-76
2022/01/18 02:38:14;;;;;;;28.30;6.60;;;7.30;99.90;;;;;;5036725;28;20160;-76
2022/01/18 02:40:40;;;;;;;20.33;5.32;;;7.20;99.90;;;;;;5036917;28;20103;-76
2022/01/18 02:45:53;;;;;;;21.33;6.75;;;7.30;99.90;;;;;;5036625;28;20156;-77
2022/01/18 02:48:19;;;;;;;17.10;6.00;;;7.30;99.90;;;;;;5038226;28;20071;-77
2022/01/18 02:50:46;;;;;;;24.92;7.15;;;7.30;99.90;;;;;;5036859;28;20411;-76
2022/01/18 02:53:12;;;;;;;15.52;6.75;;;7.30;99.90;;;;;;5037696;28;20651;-76
2022/01/18 02:55:38;;;;;;;14.80;5.43;;;7.30;99.90;;;;;;5036949;28;20053;-76
2022/01/18 02:58:08;;;;;;;20.27;6.68;;;7.30;99.90;;;;;;5038885;28;20451;-76
2022/01/18 03:03:32;;;;;;;16.77;5.05;;;7.30;99.90;;;;;;5034704;28;20291;-76
2022/01/18 03:06:00;;;;;;;23.30;5.47;;;7.40;99.90;;;;;;5037407;28;20081;-76
2022/01/18 03:08:25;;;;;;;15.27;5.68;;;7.30;99.90;;;;;;5037484;28;20572;-76
2022/01/18 03:10:51;;;;;;;16.02;5.78;;;7.40;99.90;;;;;;5038018;28;20057;-76
2022/01/18 03:13:18;;;;;;;21.27;7.13;;;7.40;99.90;;;;;;5037326;28;20060;-76
2022/01/18 03:15:44;;;;;;;22.05;6.35;;;7.40;99.90;;;;;;5031351;28;20057;-76
2022/01/18 03:18:10;;;;;;;14.43;4.28;;;7.40;99.90;;;;;;5034625;28;20048;-76
2022/01/18 03:20:36;;;;;;;10.23;5.53;;;7.40;99.90;;;;;;5035531;28;20431;-76
2022/01/18 03:23:11;;;;;;;18.00;5.18;;;7.50;99.90;;;;;;5036396;28;20516;-75
2022/01/18 03:25:52;;;;;;;15.07;5.22;;;7.50;99.90;;;;;;5036479;28;20489;-76
2022/01/18 03:28:19;;;;;;;12.05;4.60;;;7.40;99.90;;;;;;5035600;28;20099;-76
2022/01/18 03:30:47;;;;;;;15.68;4.82;;;7.50;99.90;;;;;;5036694;28;20084;-76
2022/01/18 03:33:15;;;;;;;19.50;4.43;;;7.40;99.90;;;;;;5034194;28;20057;-76
2022/01/18 03:35:41;;;;;;;11.95;5.53;;;7.40;99.90;;;;;;5036607;28;20049;-76
2022/01/18 03:38:07;;;;;;;18.77;4.95;;;7.40;99.90;;;;;;5035722;28;20122;-76
2022/01/18 03:40:34;;;;;;;11.85;4.47;;;7.40;99.90;;;;;;5035575;28;20052;-76
2022/01/18 03:43:01;;;;;;;11.50;5.07;;;7.40;99.90;;;;;;5035970;28;20495;-76
2022/01/18 03:45:39;;;;;;;21.00;5.80;;;7.40;99.90;;;;;;5036847;28;20052;-76
2022/01/18 03:48:07;;;;;;;14.05;3.60;;;7.40;99.90;;;;;;5035161;28;20060;-76
2022/01/18 03:50:33;;;;;;;17.98;5.25;;;7.50;99.90;;;;;;5035205;28;20102;-76
2022/01/18 03:52:59;;;;;;;12.10;4.18;;;7.50;99.90;;;;;;5036886;28;20051;-76
2022/01/18 03:55:25;;;;;;;15.65;4.45;;;7.50;99.90;;;;;;5034648;28;20126;-76
2022/01/18 03:57:50;;;;;;;11.98;4.03;;;7.50;99.90;;;;;;5032534;28;20886;-76
2022/01/18 04:00:23;;;;;;;13.18;5.10;;;7.50;99.90;;;;;;5034386;28;20552;-76
2022/01/18 04:02:49;;;;;;;16.70;4.80;;;7.50;99.90;;;;;;5036535;28;20059;-76
2022/01/18 04:05:15;;;;;;;14.90;4.38;;;7.50;99.90;;;;;;5036789;28;20049;-76
2022/01/18 04:07:41;;;;;;;12.10;4.53;;;7.50;99.90;;;;;;5037304;28;20063;-76
2022/01/18 04:10:08;;;;;;;17.15;5.15;;;7.50;99.90;;;;;;5036819;28;20077;-76
2022/01/18 04:12:34;;;;;;;19.77;5.18;;;7.50;99.90;;;;;;5036997;28;20037;-76
2022/01/18 04:15:05;;;;;;;10.32;3.90;;;7.60;99.90;;;;;;5034892;28;20499;-76
2022/01/18 04:17:50;;;;;;;10.73;4.47;;;7.60;99.90;;;;;;5036610;28;20048;-76
2022/01/18 04:25:55;;;;;;;5.30;3.40;;;7.60;99.90;;;;;;5039115;28;20061;-76
2022/01/18 04:28:39;;;;;;;15.07;4.07;;;7.60;99.90;;;;;;5038878;28;20748;-75
2022/01/18 04:31:07;;;;;;;10.65;3.55;;;7.70;99.90;;;;;;5039664;28;20088;-75
2022/01/18 04:33:33;;;;;;;11.20;3.30;;;7.70;99.90;;;;;;5039183;28;20155;-75
2022/01/18 04:35:59;;;;;;;11.48;3.22;;;7.80;99.90;;;;;;5040811;28;20075;-76
2022/01/18 04:38:25;;;;;;;12.60;4.20;;;7.80;99.90;;;;;;5038234;28;20056;-75
2022/01/18 04:40:52;;;;;;;13.50;3.90;;;7.80;99.90;;;;;;5040369;28;20577;-76
2022/01/18 04:43:43;;;;;;;11.07;4.35;;;7.80;99.90;;;;;;5040278;28;20056;-75
2022/01/18 04:48:47;;;;;;;8.65;3.38;;;7.80;99.90;;;;;;5038854;28;20061;-75
2022/01/18 04:51:13;;;;;;;12.00;4.18;;;7.80;99.90;;;;;;5038808;28;20127;-76
2022/01/18 04:53:42;;;;;;;11.80;4.75;;;7.80;99.90;;;;;;5038311;28;20114;-76
2022/01/18 04:56:14;;;;;;;12.15;3.47;;;7.80;99.90;;;;;;5040588;28;20421;-76
2022/01/18 04:58:40;;;;;;;8.55;3.40;;;7.90;99.90;;;;;;5040235;28;20080;-75
2022/01/18 05:01:07;;;;;;;17.73;4.45;;;7.80;99.90;;;;;;5041162;28;20155;-75
2022/01/18 05:03:32;;;;;;;8.43;4.05;;;7.60;99.90;;;;;;5039273;28;20137;-75
2022/01/18 05:06:02;;;;;;;9.15;2.70;;;7.80;99.90;;;;;;5038243;28;20442;-75
2022/01/18 05:08:28;;;;;;;13.48;3.75;;;7.80;99.90;;;;;;5040910;28;20064;-76
2022/01/18 05:10:57;;;;;;;11.50;3.88;;;7.80;99.90;;;;;;5040252;28;20044;-76
2022/01/18 05:23:32;;;;;;;13.93;3.13;;;7.80;99.90;;;;;;5039466;28;20057;-76
2022/01/18 05:25:57;;;;;;;9.45;3.40;;;7.70;99.90;;;;;;5038369;28;20068;-75
2022/01/18 05:28:23;;;;;;;7.15;2.95;;;7.80;99.90;;;;;;5038523;28;20390;-75
2022/01/18 05:30:49;;;;;;;10.82;3.35;;;7.80;99.90;;;;;;5038345;28;20045;-75
2022/01/18 05:33:14;;;;;;;11.20;3.92;;;7.80;99.90;;;;;;5039023;28;20045;-75
2022/01/18 05:35:40;;;;;;;16.83;3.30;;;7.70;99.90;;;;;;5039947;28;20049;-75
2022/01/18 05:38:06;;;;;;;11.15;2.50;;;7.70;99.90;;;;;;5037915;28;20052;-75
2022/01/18 05:40:32;;;;;;;10.02;3.03;;;7.70;99.90;;;;;;5038312;28;20057;-75
2022/01/18 05:42:58;;;;;;;6.97;2.70;;;7.70;99.90;;;;;;5039914;28;20088;-75
2022/01/18 05:45:23;;;;;;;6.55;2.05;;;7.70;99.90;;;;;;5038217;28;20136;-75
2022/01/18 05:47:49;;;;;;;6.65;2.95;;;7.70;99.90;;;;;;5034455;28;20126;-75
2022/01/18 05:50:15;;;;;;;6.10;2.53;;;7.70;99.90;;;;;;5038942;28;20057;-75
2022/01/18 05:52:41;;;;;;;8.65;2.78;;;7.70;99.90;;;;;;5038806;28;20792;-75
2022/01/18 05:55:09;;;;;;;6.22;2.45;;;7.70;99.90;;;;;;5036943;28;20049;-75
2022/01/18 05:57:35;;;;;;;5.43;2.15;;;7.70;99.90;;;;;;5037693;28;20116;-75
2022/01/18 06:00:05;;;;;;;9.00;2.50;;;7.80;99.90;;;;;;5035455;28;20049;-75
2022/01/18 06:02:43;;;;;;;6.38;2.50;;;7.80;99.90;;;;;;5035426;28;20756;-75
2022/01/18 06:07:56;;;;;;;7.03;2.83;;;7.90;99.90;;;;;;5036137;28;20095;-75
2022/01/18 06:10:22;;;;;;;7.68;2.38;;;7.90;99.90;;;;;;5035885;28;20055;-75
2022/01/18 06:12:48;;;;;;;7.70;2.58;;;7.90;99.90;;;;;;5034959;28;20052;-75
2022/01/18 06:15:13;;;;;;;5.35;2.53;;;7.90;99.90;;;;;;5033916;28;20048;-75
2022/01/18 06:17:39;;;;;;;3.70;2.13;;;8.00;99.90;;;;;;5036464;28;20394;-75
2022/01/18 06:20:06;;;;;;;5.53;2.90;;;8.00;99.90;;;;;;5035040;28;20056;-74
2022/01/18 06:22:32;;;;;;;5.88;2.42;;;8.00;99.90;;;;;;5034313;28;20089;-75
2022/01/18 06:24:58;;;;;;;10.23;2.60;;;8.00;99.90;;;;;;5035191;28;20261;-75
2022/01/18 06:27:23;;;;;;;12.82;3.30;;;8.00;99.90;;;;;;5036236;28;20079;-75
2022/01/18 06:29:49;;;;;;;5.45;2.20;;;8.00;99.90;;;;;;5034526;28;20110;-75
2022/01/18 06:32:15;;;;;;;10.00;2.35;;;8.00;99.90;;;;;;5034714;28;20428;-75
2022/01/18 06:34:40;;;;;;;8.77;2.88;;;8.00;99.90;;;;;;5035119;28;20114;-75
2022/01/18 06:37:07;;;;;;;9.15;2.70;;;8.00;99.90;;;;;;5034718;28;20056;-75
2022/01/18 06:39:33;;;;;;;5.78;2.88;;;8.00;99.90;;;;;;5033641;28;20056;-75
2022/01/18 06:41:59;;;;;;;6.60;2.47;;;8.00;99.90;;;;;;5034312;28;20557;-75
2022/01/18 06:44:25;;;;;;;4.68;2.20;;;8.00;99.90;;;;;;5067054;28;20040;-75
2022/01/18 06:46:51;;;;;;;4.95;2.35;;;8.00;99.90;;;;;;5068080;28;20056;-75
2022/01/18 06:49:17;;;;;;;5.28;2.25;;;8.00;99.90;;;;;;5067366;28;20053;-74
2022/01/18 06:51:43;;;;;;;10.90;2.85;;;7.90;99.90;;;;;;5066547;28;20045;-75
2022/01/18 06:54:14;;;;;;;8.13;3.08;;;7.90;99.90;;;;;;5067466;28;20866;-77
2022/01/18 06:56:43;;;;;;;6.45;2.25;;;7.90;99.90;;;;;;5035085;28;20045;-75
2022/01/18 06:59:09;;;;;;;8.93;2.97;;;7.90;99.90;;;;;;5033540;28;20130;-75
2022/01/18 07:01:35;;;;;;;8.18;3.08;;;7.90;99.90;;;;;;5032101;28;20044;-75
2022/01/18 07:04:00;;;;;;;5.75;2.35;;;7.90;99.90;;;;;;5033708;28;20044;-75
2022/01/18 07:06:26;;;;;;;10.85;2.88;;;7.90;99.90;;;;;;5034367;28;20753;-75
2022/01/18 07:08:51;;;;;;;8.02;2.53;;;7.90;99.90;;;;;;5035391;28;20579;-75
2022/01/18 07:11:17;;;;;;;9.02;2.30;;;7.90;99.90;;;;;;5035660;28;20056;-75
2022/01/18 07:13:43;;;;;;;6.32;2.55;;;8.50;99.90;;;;;;5034137;28;20155;-75
2022/01/18 07:16:08;;;;;;;7.90;2.60;;;8.00;99.90;;;;;;5035317;28;20803;-75
2022/01/18 07:18:34;;;;;;;6.50;2.35;;;8.00;99.90;;;;;;5031995;28;20044;-75
2022/01/18 07:20:59;;;;;;;11.75;2.80;;;8.00;99.90;;;;;;5032641;28;20250;-75
2022/01/18 07:23:25;;;;;;;5.32;1.77;;;8.00;99.90;;;;;;5052023;28;20211;-76
2022/01/18 07:25:52;;;;;;;5.50;3.15;;;8.00;99.90;;;;;;5013813;28;20046;-76
2022/01/18 07:28:19;;;;;;;5.50;2.25;;;7.90;99.90;;;;;;5014861;28;20110;-74
2022/01/18 07:30:45;;;;;;;7.15;2.20;;;7.90;99.90;;;;;;5014002;28;20053;-75
2022/01/18 07:33:14;;;;;;;18.23;3.00;;;7.90;99.90;;;;;;5014857;28;20072;-75
2022/01/18 07:35:41;;;;;;;5.07;2.65;;;7.90;99.90;;;;;;5016079;28;20057;-75
2022/01/18 07:38:07;;;;;;;6.03;2.78;;;7.90;99.90;;;;;;5026475;28;20659;-75
2022/01/18 07:40:34;;;;;;;9.35;3.15;;;7.90;99.90;;;;;;5031153;28;20055;-75
2022/01/18 07:43:01;;;;;;;6.32;2.72;;;7.70;99.90;;;;;;5034588;28;20851;-75
2022/01/18 07:45:28;;;;;;;7.72;2.50;;;7.80;99.90;;;;;;5031993;28;20055;-75
2022/01/18 07:47:54;;;;;;;7.88;3.63;;;7.90;99.90;;;;;;5067119;28;20040;-75
2022/01/18 07:50:20;;;;;;;10.75;3.08;;;7.80;99.90;;;;;;5032576;28;20079;-75
2022/01/18 07:52:46;;;;;;;3.63;2.10;;;7.80;99.90;;;;;;5031993;28;20048;-75
2022/01/18 07:55:12;;;;;;;7.55;2.45;;;7.80;99.90;;;;;;5035904;28;20055;-75
2022/01/18 07:57:41;;;;;;;7.97;3.00;;;7.80;99.90;;;;;;5037587;28;20098;-75
2022/01/18 08:00:11;;;;;;;8.30;2.50;;;7.80;99.90;;;;;;5035053;28;20044;-75
2022/01/18 08:02:37;;;;;;;6.78;3.13;;;7.80;99.90;;;;;;5035944;28;20755;-75
2022/01/18 08:05:05;;;;;;;5.38;2.40;;;7.90;99.90;;;;;;5036506;28;20135;-75
2022/01/18 08:07:30;;;;;;;6.35;2.60;;;7.80;99.90;;;;;;5041409;28;20084;-75
2022/01/18 08:09:56;;;;;;;9.00;3.22;;;7.80;99.90;;;;;;5037771;28;20156;-76
2022/01/18 08:12:23;;;;;;;7.47;2.67;;;7.80;99.90;;;;;;5040278;28;20829;-78
2022/01/18 08:14:50;;;;;;;5.68;2.90;;;7.80;99.90;;;;;;5040031;28;20053;-75
2022/01/18 08:17:15;;;;;;;10.68;4.82;;;7.90;99.90;;;;;;5039444;28;20462;-76
2022/01/18 08:19:41;;;;;;;6.82;2.30;;;7.90;99.90;;;;;;5073484;28;20156;-75
2022/01/18 08:22:09;;;;;;;7.05;2.90;;;7.90;99.90;;;;;;5039584;28;21047;-76
2022/01/18 08:24:35;;;;;;;10.30;3.08;;;7.90;99.90;;;;;;5073779;28;20479;-76
2022/01/18 08:27:02;;;;;;;6.05;2.67;;;7.90;99.90;;;;;;5040201;28;20631;-75
2022/01/18 08:29:28;;;;;;;6.90;3.10;;;7.90;99.90;;;;;;5041079;28;20072;-75
2022/01/18 08:31:53;;;;;;;9.88;3.33;;;7.90;99.90;;;;;;5040357;28;20048;-74
2022/01/18 08:34:21;;;;;;;5.50;2.92;;;7.90;99.90;;;;;;5040881;28;20231;-75
2022/01/18 08:36:46;;;;;;;6.57;3.42;;;8.00;99.90;;;;;;5040419;28;20052;-75
2022/01/18 08:39:12;;;;;;;10.30;2.97;;;8.00;99.90;;;;;;5039036;28;20424;-75
2022/01/18 08:41:38;;;;;;;8.93;3.58;;;7.90;99.90;;;;;;5039498;28;20044;-76
2022/01/18 08:44:04;;;;;;;6.80;3.05;;;7.90;99.90;;;;;;5038785;28;20063;-76
2022/01/18 08:46:30;;;;;;;7.25;2.63;;;8.00;99.90;;;;;;5040792;28;20717;-77
2022/01/18 08:48:56;;;;;;;6.57;3.20;;;8.00;99.90;;;;;;5039127;28;20171;-77
2022/01/18 08:51:21;;;;;;;9.50;2.55;;;8.00;99.90;;;;;;5039312;28;20053;-76
2022/01/18 08:53:50;;;;;;;7.53;2.88;;;8.00;99.90;;;;;;5038968;28;20045;-76
2022/01/18 08:56:20;;;;;;;7.22;2.95;;;7.90;99.90;;;;;;5071620;28;20091;-76
2022/01/18 08:58:46;;;;;;;14.25;4.55;;;8.00;99.90;;;;;;5034446;28;20055;-77
2022/01/18 09:01:12;;;;;;;5.53;2.53;;;8.00;99.90;;;;;;5038133;28;20064;-77
2022/01/18 09:03:38;;;;;;;9.18;2.45;;;8.00;99.90;;;;;;5039740;28;20052;-77
2022/01/18 09:06:05;;;;;;;7.83;2.86;;;8.10;99.90;;;;;;4685538;28;10001386;-76
2022/01/18 09:08:31;;;;;;;7.45;3.42;;;8.10;99.90;;;;;;5033688;28;20127;-77
2022/01/18 09:10:57;;;;;;;4.70;2.55;;;8.10;99.90;;;;;;5033320;28;20047;-77
2022/01/18 09:13:23;;;;;;;5.10;2.60;;;8.10;99.90;;;;;;5036005;28;20045;-76
2022/01/18 09:15:50;;;;;;;6.53;3.17;;;8.20;99.90;;;;;;5035310;28;20053;-77
2022/01/18 09:18:17;;;;;;;6.45;2.70;;;8.20;99.90;;;;;;5035880;28;20049;-76
2022/01/18 09:20:43;;;;;;;7.45;3.28;;;8.20;99.90;;;;;;5069055;28;20849;-76
2022/01/18 09:23:09;;;;;;;6.65;2.67;;;8.20;99.90;;;;;;5037447;28;20759;-76
2022/01/18 09:25:36;;;;;;;5.47;2.15;;;8.20;99.90;;;;;;5036292;28;20041;-77
2022/01/18 09:28:02;;;;;;;4.97;2.67;;;8.20;99.90;;;;;;5036070;28;20159;-77
2022/01/18 09:30:29;;;;;;;4.30;2.60;;;8.20;99.90;;;;;;5068300;28;20060;-77
2022/01/18 09:32:56;;;;;;;5.57;2.55;;;8.20;99.90;;;;;;5036937;28;20053;-77
2022/01/18 09:35:22;;;;;;;8.27;3.40;;;8.30;99.90;;;;;;5037098;28;20044;-77
2022/01/18 09:37:48;;;;;;;5.93;2.45;;;8.30;99.90;;;;;;5035199;28;20092;-77
2022/01/18 09:40:19;;;;;;;8.35;2.70;;;8.40;99.90;;;;;;5036117;28;20817;-76
2022/01/18 09:42:51;;;;;;;9.10;2.35;;;8.40;99.90;;;;;;5035018;28;20049;-77
2022/01/18 09:45:18;;;;;;;7.28;2.90;;;8.30;99.90;;;;;;5037311;28;20056;-77
2022/01/18 09:47:47;;;;;;;7.55;2.85;;;8.40;99.90;;;;;;5034144;28;20076;-77
2022/01/18 09:50:16;;;;;;;10.32;2.72;;;8.40;99.90;;;;;;5036439;28;20888;-76
2022/01/18 09:52:41;;;;;;;7.57;2.03;;;8.40;99.90;;;;;;5034666;28;20073;-77
2022/01/18 09:55:09;;;;;;;11.82;2.60;;;8.50;99.90;;;;;;5031510;28;20175;-77
2022/01/18 09:57:36;;;;;;;8.93;2.80;;;8.50;99.90;;;;;;5033005;28;20049;-76
2022/01/18 10:00:03;;;;;;;9.65;2.55;;;8.50;99.90;;;;;;5034247;28;20057;-77
2022/01/18 10:02:28;;;;;;;6.47;2.70;;;8.60;99.90;;;;;;5034444;28;20785;-76
2022/01/18 10:04:57;;;;;;;5.47;2.38;;;8.50;99.90;;;;;;5032157;28;20087;-76
2022/01/18 10:07:32;;;;;;;5.65;2.25;;;8.60;99.90;;;;;;5033528;28;20131;-77
2022/01/18 10:10:04;;;;;;;5.18;2.78;;;8.70;99.90;;;;;;5034018;28;20084;-77
2022/01/18 10:12:30;;;;;;;7.47;2.67;;;8.80;99.90;;;;;;5027424;28;20051;-77
2022/01/18 10:14:58;;;;;;;5.50;2.38;;;8.80;99.90;;;;;;5034260;28;20396;-77
2022/01/18 10:17:31;;;;;;;9.52;2.88;;;8.80;99.90;;;;;;5034064;28;20155;-75
2022/01/18 10:20:03;;;;;;;8.98;2.90;;;8.80;99.90;;;;;;5035146;28;20052;-78
2022/01/18 10:22:39;;;;;;;3.35;2.17;;;8.80;99.90;;;;;;5036598;28;20098;-76
2022/01/18 10:25:14;;;;;;;13.52;3.92;;;8.80;99.90;;;;;;5037901;28;20166;-77
2022/01/18 10:27:40;;;;;;;6.78;2.45;;;8.80;99.90;;;;;;5065613;28;20049;-77
2022/01/18 10:30:10;;;;;;;6.00;2.38;;;8.80;99.90;;;;;;5028596;28;20056;-77
2022/01/18 10:32:40;;;;;;;7.57;3.08;;;8.90;99.90;;;;;;5031515;28;20095;-78
2022/01/18 10:35:08;;;;;;;13.48;4.07;;;8.90;99.90;;;;;;5067353;28;20045;-77
2022/01/18 10:37:38;;;;;;;7.32;2.50;;;8.90;99.90;;;;;;5035247;28;20676;-78
2022/01/18 10:40:15;;;;;;;8.38;3.70;;;9.00;99.90;;;;;;5034736;28;20051;-77
2022/01/18 10:42:49;;;;;;;6.68;2.95;;;8.90;99.90;;;;;;5033130;28;20048;-77
2022/01/18 10:45:29;;;;;;;6.10;3.17;;;8.90;99.90;;;;;;5033511;28;20571;-77
2022/01/18 10:48:02;;;;;;;8.55;3.03;;;8.90;99.90;;;;;;5067683;28;20053;-78
2022/01/18 10:50:35;;;;;;;8.48;3.47;;;8.90;99.90;;;;;;5035136;28;20491;-77
2022/01/18 10:53:15;;;;;;;7.18;3.63;;;8.90;99.90;;;;;;5032772;28;20045;-78
2022/01/18 10:55:41;;;;;;;9.32;4.53;;;8.90;99.90;;;;;;5033124;28;20515;-77
2022/01/18 10:58:18;;;;;;;7.00;2.58;;;8.90;99.90;;;;;;5035707;28;20049;-78
2022/01/18 11:00:44;;;;;;;4.80;2.75;;;8.80;99.90;;;;;;5033950;28;20052;-76
2022/01/18 11:03:10;;;;;;;4.47;2.75;;;8.80;99.90;;;;;;5033902;28;20041;-68
2022/01/18 11:05:39;;;;;;;7.45;3.90;;;8.80;99.90;;;;;;5033110;28;20045;-78
2022/01/18 11:08:08;;;;;;;5.68;2.10;;;8.80;99.90;;;;;;5033857;28;20049;-77
2022/01/18 11:10:40;;;;;;;3.30;1.92;;;8.80;99.90;;;;;;5064948;28;20064;-77
2022/01/18 11:13:10;;;;;;;5.68;2.78;;;9.30;99.90;;;;;;5031829;28;20049;-77
2022/01/18 11:15:42;;;;;;;6.75;2.88;;;8.80;99.90;;;;;;5031556;28;20047;-77
2022/01/18 11:18:24;;;;;;;9.57;3.10;;;8.80;99.90;;;;;;5033976;28;20149;-78
2022/01/18 11:20:50;;;;;;;11.00;3.25;;;8.80;99.90;;;;;;5065417;28;20048;-78
2022/01/18 11:23:17;;;;;;;8.05;3.45;;;8.90;99.90;;;;;;5033739;28;20396;-77
2022/01/18 11:25:44;;;;;;;11.52;3.75;;;8.80;99.90;;;;;;5064812;28;20052;-77
2022/01/18 11:28:11;;;;;;;8.75;3.25;;;8.80;99.90;;;;;;5066141;28;20746;-75
2022/01/18 11:30:40;;;;;;;7.40;2.90;;;8.80;99.90;;;;;;5035006;28;20136;-77
2022/01/18 11:33:10;;;;;;;5.35;3.25;;;8.90;99.90;;;;;;5062879;28;20052;-80
2022/01/18 11:35:56;;;;;;;8.13;3.05;;;8.90;99.90;;;;;;5032627;28;20041;-76
2022/01/18 11:38:57;;;;;;;8.80;3.20;;;8.90;99.90;;;;;;5065078;28;20097;-76
2022/01/18 11:41:31;;;;;;;6.68;4.20;;;8.90;99.90;;;;;;5020944;28;20468;-76
2022/01/18 11:43:59;;;;;;;4.72;3.30;;;8.80;99.90;;;;;;5034074;28;20092;-77
2022/01/18 11:46:32;;;;;;;7.65;4.60;;;8.80;99.90;;;;;;5031565;28;20131;-76
2022/01/18 11:49:04;;;;;;;6.78;3.83;;;8.70;99.90;;;;;;5031762;28;20145;-76
2022/01/18 11:51:40;;;;;;;7.85;4.43;;;8.80;99.90;;;;;;5035237;28;20872;-77
2022/01/18 11:54:24;;;;;;;9.18;4.90;;;8.80;99.90;;;;;;5033599;28;20045;-76
2022/01/18 11:56:50;;;;;;;7.43;2.67;;;8.80;99.90;;;;;;5031922;28;20131;-76
2022/01/18 11:59:17;;;;;;;10.70;2.88;;;8.80;99.90;;;;;;5065493;28;20041;-76
2022/01/18 12:01:51;;;;;;;7.50;3.72;;;8.90;99.90;;;;;;5034367;28;20052;-76
2022/01/18 12:07:28;;;;;;;9.07;4.68;;;8.80;99.90;;;;;;5033831;28;20152;-77
2022/01/18 12:09:54;;;;;;;5.38;2.75;;;8.80;99.90;;;;;;5048607;28;20060;-76
2022/01/18 12:12:42;;;;;;;9.38;3.95;;;8.80;99.90;;;;;;5029704;28;20040;-75
2022/01/18 12:15:19;;;;;;;9.13;4.05;;;8.80;99.90;;;;;;5062805;28;20088;-75
2022/01/18 12:17:49;;;;;;;6.78;3.50;;;8.80;99.90;;;;;;5063215;28;20384;-75
2022/01/18 12:20:33;;;;;;;7.18;3.08;;;8.80;99.90;;;;;;5064847;28;20076;-76
2022/01/18 12:23:00;;;;;;;7.30;2.97;;;8.80;99.90;;;;;;5065438;28;20140;-76
2022/01/18 12:25:28;;;;;;;12.90;3.83;;;8.70;99.90;;;;;;5065567;28;20068;-76
2022/01/18 12:27:55;;;;;;;6.63;3.00;;;8.60;99.90;;;;;;5033855;28;20057;-77
2022/01/18 12:30:53;;;;;;;7.15;2.50;;;8.60;99.90;;;;;;5032811;28;20049;-76
2022/01/18 12:33:21;;;;;;;6.70;3.05;;;8.60;99.90;;;;;;5034930;28;20475;-77
2022/01/18 12:35:47;;;;;;;7.13;2.60;;;8.70;99.90;;;;;;5030983;28;20446;-76
2022/01/18 12:38:24;;;;;;;5.10;2.72;;;8.60;99.90;;;;;;5033067;28;20138;-76
2022/01/18 12:40:50;;;;;;;7.78;2.65;;;8.60;99.90;;;;;;5034637;28;20134;-77
2022/01/18 12:46:04;;;;;;;6.20;3.00;;;8.60;99.90;;;;;;5037180;28;20079;-76
2022/01/18 12:48:31;;;;;;;8.48;2.55;;;8.70;99.90;;;;;;5038134;28;20048;-77
2022/01/18 12:51:00;;;;;;;6.90;2.97;;;8.60;99.90;;;;;;5036353;28;20063;-77
2022/01/18 12:53:29;;;;;;;3.55;2.33;;;8.70;99.90;;;;;;5037466;28;20102;-77
2022/01/18 12:56:00;;;;;;;6.22;2.75;;;8.70;99.90;;;;;;5037378;28;20105;-77
2022/01/18 12:58:40;;;;;;;9.05;2.53;;;8.70;99.90;;;;;;5037884;28;20061;-76
2022/01/18 13:01:11;;;;;;;6.20;3.70;;;8.60;99.90;;;;;;5037742;28;20763;-76
2022/01/18 13:03:43;;;;;;;7.20;3.08;;;8.50;99.90;;;;;;5034390;28;20036;-76
2022/01/18 13:06:11;;;;;;;5.88;3.35;;;8.40;99.90;;;;;;5034429;28;20655;-76
2022/01/18 13:08:59;;;;;;;9.82;3.13;;;8.50;99.90;;;;;;5035198;28;20111;-76
2022/01/18 13:11:28;;;;;;;5.28;2.63;;;8.50;99.90;;;;;;5037323;28;20049;-76
2022/01/18 13:14:01;;;;;;;7.80;3.85;;;8.50;99.90;;;;;;5037280;28;20491;-76
2022/01/18 13:25:02;;;;;;;7.78;2.88;;;8.50;99.90;;;;;;5037967;28;20057;-75
2022/01/18 13:27:32;;;;;;;8.38;4.00;;;8.50;99.90;;;;;;5037327;28;20056;-75
2022/01/18 13:30:27;;;;;;;10.38;4.65;;;8.50;99.90;;;;;;5036660;28;20706;-75
2022/01/18 13:32:56;;;;;;;9.13;4.07;;;8.50;99.90;;;;;;5037815;28;20053;-75
2022/01/18 13:35:25;;;;;;;7.13;3.30;;;8.50;99.90;;;;;;5037484;28;20064;-75
2022/01/18 13:37:51;;;;;;;7.20;3.88;;;8.50;99.90;;;;;;5037479;28;20067;-75
2022/01/18 13:40:17;;;;;;;9.95;4.32;;;8.50;99.90;;;;;;5035575;28;20048;-75
2022/01/18 13:43:00;;;;;;;10.18;4.20;;;8.50;99.90;;;;;;5033540;28;20448;-75
2022/01/18 13:45:27;;;;;;;5.88;3.25;;;8.50;99.90;;;;;;5034241;28;20064;-77
2022/01/18 13:47:56;;;;;;;7.97;3.63;;;8.40;99.90;;;;;;5035106;28;20080;-75
2022/01/18 13:50:34;;;;;;;12.30;4.70;;;8.40;99.90;;;;;;5035816;28;20049;-75
2022/01/18 13:53:02;;;;;;;10.02;3.63;;;8.40;99.90;;;;;;5033445;28;20037;-75
2022/01/18 13:55:29;;;;;;;11.07;3.92;;;8.30;99.90;;;;;;5035892;28;20044;-75
2022/01/18 13:57:57;;;;;;;8.15;4.18;;;8.10;99.90;;;;;;5035566;28;20138;-75
2022/01/18 14:00:25;;;;;;;8.10;4.70;;;8.20;99.90;;;;;;5033314;28;20048;-75
2022/01/18 14:02:51;;;;;;;6.38;4.13;;;8.20;99.90;;;;;;5034163;28;20499;-75
2022/01/18 14:05:20;;;;;;;11.88;4.60;;;8.10;99.90;;;;;;5066837;28;20049;-75
2022/01/18 14:07:46;;;;;;;11.50;4.93;;;8.40;99.90;;;;;;5034359;28;20049;-75
2022/01/18 14:10:11;;;;;;;8.48;4.72;;;8.20;99.90;;;;;;5036139;28;20603;-75
2022/01/18 14:12:37;;;;;;;11.15;4.60;;;8.20;99.90;;;;;;5035870;28;20053;-75
2022/01/18 14:15:03;;;;;;;9.15;4.38;;;8.10;99.90;;;;;;5034294;28;20041;-75
2022/01/18 14:17:29;;;;;;;9.50;4.60;;;8.10;99.90;;;;;;5028317;28;20053;-75
2022/01/18 14:20:04;;;;;;;7.63;4.45;;;8.00;99.90;;;;;;5024816;28;20033;-75
2022/01/18 14:22:34;;;;;;;15.70;5.07;;;8.00;99.90;;;;;;5030972;28;20048;-75